Time;durP1;ratioP1;P1;durP2;ratioP2;P2;SDS_P1;SDS_P2;PMS_P1;PMS_P2;Temp;Humidity;BMP_temperature;BMP_pressure;BME280_temperature;BME280_humidity;BME280_pressure;Samples;Min_cycle;Max_cycle;Signal;HPM_P1;HPM_P2
2022/08/05 00:01:14;;;;;;;1.30;1.20;;;24.00;95.90;;;;;;5077493;28;20221;-81
2022/08/05 00:03:41;;;;;;;0.97;0.97;;;23.90;95.80;;;;;;5078784;28;20214;-82
2022/08/05 00:06:10;;;;;;;1.37;1.00;;;23.90;95.60;;;;;;5078648;28;20225;-82
2022/08/05 00:08:37;;;;;;;1.40;1.13;;;23.90;94.40;;;;;;5078190;28;20212;-82
2022/08/05 00:11:06;;;;;;;0.80;0.80;;;23.90;94.10;;;;;;5077497;28;20222;-81
2022/08/05 00:13:34;;;;;;;0.80;0.80;;;23.90;95.10;;;;;;5077030;28;20206;-82
2022/08/05 00:16:01;;;;;;;1.10;0.90;;;23.90;95.50;;;;;;5077156;28;20190;-82
2022/08/05 00:18:28;;;;;;;1.10;1.00;;;23.80;94.60;;;;;;5077290;28;20214;-82
2022/08/05 00:20:55;;;;;;;1.20;1.10;;;23.80;94.50;;;;;;5077513;28;20226;-82
2022/08/05 00:23:24;;;;;;;1.58;0.95;;;23.80;94.40;;;;;;5076817;28;20202;-82
2022/08/05 00:25:51;;;;;;;1.00;0.90;;;23.70;93.70;;;;;;5076669;28;20285;-82
2022/08/05 00:28:18;;;;;;;1.40;0.90;;;23.70;94.30;;;;;;5076581;28;20206;-82
2022/08/05 00:30:44;;;;;;;0.83;0.80;;;23.70;94.10;;;;;;5076755;28;20228;-83
2022/08/05 00:33:11;;;;;;;1.77;1.00;;;23.70;93.80;;;;;;5076668;28;20202;-82
2022/08/05 00:35:38;;;;;;;0.90;0.90;;;23.70;93.20;;;;;;5076455;28;20237;-82
2022/08/05 00:38:05;;;;;;;0.97;0.87;;;23.60;93.00;;;;;;5076968;28;20208;-82
2022/08/05 00:40:33;;;;;;;0.80;0.80;;;23.60;93.20;;;;;;5076890;28;20222;-82
2022/08/05 00:43:02;;;;;;;1.10;1.10;;;23.60;93.50;;;;;;5077024;28;20190;-82
2022/08/05 00:45:29;;;;;;;1.25;1.15;;;23.50;94.00;;;;;;5076182;28;20218;-82
2022/08/05 00:47:56;;;;;;;1.27;0.83;;;23.50;93.90;;;;;;5076902;28;20206;-82
2022/08/05 00:50:23;;;;;;;1.63;1.03;;;23.50;93.40;;;;;;5076662;28;20214;-82
2022/08/05 00:52:49;;;;;;;0.80;0.80;;;23.50;93.40;;;;;;5076131;28;20202;-82
2022/08/05 00:55:16;;;;;;;1.07;1.00;;;23.40;93.10;;;;;;5075874;28;20202;-82
2022/08/05 00:57:44;;;;;;;0.80;0.80;;;23.40;92.90;;;;;;5075666;28;20592;-82
2022/08/05 01:00:12;;;;;;;1.10;1.10;;;23.40;93.40;;;;;;5075319;28;20468;-82
2022/08/05 01:02:39;;;;;;;1.10;1.00;;;23.40;94.00;;;;;;5075919;28;20500;-82
2022/08/05 01:05:06;;;;;;;1.50;1.40;;;23.40;93.00;;;;;;5075000;28;20472;-82
2022/08/05 01:07:33;;;;;;;1.23;1.13;;;23.40;94.00;;;;;;5075506;28;20205;-82
2022/08/05 01:10:01;;;;;;;1.53;1.27;;;23.40;95.20;;;;;;5073889;28;20224;-82
2022/08/05 01:12:28;;;;;;;1.07;1.00;;;23.30;95.80;;;;;;5074231;28;20458;-82
2022/08/05 01:15:01;;;;;;;1.67;1.10;;;23.30;96.20;;;;;;5074564;28;20440;-82
2022/08/05 01:17:32;;;;;;;2.93;1.10;;;23.20;95.00;;;;;;5074427;28;20186;-82
2022/08/05 01:20:09;;;;;;;0.80;0.80;;;23.20;95.80;;;;;;5074276;28;20469;-82
2022/08/05 01:22:54;;;;;;;1.17;1.10;;;23.20;95.50;;;;;;5074257;28;20441;-82
2022/08/05 01:25:45;;;;;;;1.17;1.17;;;23.10;95.70;;;;;;5074980;28;20210;-82
2022/08/05 01:28:26;;;;;;;1.10;1.00;;;23.10;95.50;;;;;;5074241;28;20495;-82
2022/08/05 01:30:59;;;;;;;1.67;1.57;;;23.10;95.30;;;;;;5073584;28;20444;-82
2022/08/05 01:33:31;;;;;;;1.27;1.27;;;23.10;95.40;;;;;;5074493;28;20201;-82
2022/08/05 01:36:01;;;;;;;0.90;0.90;;;23.10;95.10;;;;;;5074138;28;20767;-82
2022/08/05 01:38:29;;;;;;;0.83;0.83;;;23.10;95.00;;;;;;5073879;28;20221;-82
2022/08/05 01:40:58;;;;;;;2.73;1.47;;;23.10;95.40;;;;;;5073609;28;20484;-82
2022/08/05 01:43:28;;;;;;;1.00;0.90;;;23.10;95.90;;;;;;5073974;28;20452;-82
2022/08/05 01:45:56;;;;;;;1.63;0.93;;;23.10;95.60;;;;;;5073927;28;20521;-82
2022/08/05 01:48:23;;;;;;;1.00;0.90;;;23.20;95.60;;;;;;5073578;28;20456;-82
2022/08/05 01:50:52;;;;;;;0.87;0.87;;;23.20;95.40;;;;;;5073660;28;20806;-82
2022/08/05 01:53:21;;;;;;;1.10;1.00;;;23.30;95.90;;;;;;5073543;28;20206;-82
2022/08/05 01:55:50;;;;;;;0.93;0.90;;;23.30;96.00;;;;;;5073426;28;20451;-82
2022/08/05 01:58:17;;;;;;;2.00;1.37;;;23.30;96.40;;;;;;5073423;28;20205;-82
2022/08/05 02:00:50;;;;;;;0.83;0.83;;;23.40;96.50;;;;;;5073245;28;20210;-82
2022/08/05 02:03:21;;;;;;;0.93;0.93;;;23.40;96.40;;;;;;5074294;28;20205;-82
2022/08/05 02:05:49;;;;;;;1.23;1.13;;;23.40;96.50;;;;;;5073228;28;20483;-82
2022/08/05 02:08:16;;;;;;;0.90;0.90;;;23.40;96.90;;;;;;5073195;28;20455;-82
2022/08/05 02:10:48;;;;;;;1.03;0.90;;;23.40;97.50;;;;;;5073325;28;20829;-82
2022/08/05 02:13:18;;;;;;;1.00;0.90;;;23.40;97.90;;;;;;5073149;28;20441;-82
2022/08/05 02:15:53;;;;;;;2.57;1.40;;;23.40;98.00;;;;;;5073986;28;20433;-82
2022/08/05 02:18:25;;;;;;;0.93;0.80;;;23.40;97.70;;;;;;5073081;28;20193;-82
2022/08/05 02:20:56;;;;;;;1.30;0.90;;;23.30;98.10;;;;;;5073059;28;20596;-82
2022/08/05 02:23:29;;;;;;;1.00;0.87;;;23.30;98.10;;;;;;5077467;28;20420;-82
2022/08/05 02:25:59;;;;;;;1.37;0.90;;;23.30;98.40;;;;;;5077853;28;20468;-82
2022/08/05 02:28:30;;;;;;;0.80;0.80;;;23.30;98.60;;;;;;5077209;28;20202;-82
2022/08/05 02:31:00;;;;;;;1.50;0.80;;;23.20;98.70;;;;;;5077085;28;20475;-82
2022/08/05 02:33:27;;;;;;;1.50;1.07;;;23.30;99.30;;;;;;5077015;28;20428;-82
2022/08/05 02:35:57;;;;;;;0.90;0.90;;;23.20;98.60;;;;;;5076751;28;20955;-82
2022/08/05 02:38:25;;;;;;;1.20;1.10;;;23.20;98.80;;;;;;5077270;28;20213;-82
2022/08/05 02:40:54;;;;;;;0.80;0.80;;;23.20;99.10;;;;;;5076533;28;20480;-82
2022/08/05 02:43:22;;;;;;;1.40;1.10;;;23.20;99.30;;;;;;5077004;28;20209;-82
2022/08/05 02:45:50;;;;;;;1.80;1.50;;;23.10;98.90;;;;;;5077326;28;20479;-82
2022/08/05 02:48:19;;;;;;;1.40;1.30;;;23.10;99.30;;;;;;5077624;28;20451;-82
2022/08/05 02:50:49;;;;;;;1.10;1.00;;;23.10;99.00;;;;;;5077650;28;20262;-82
2022/08/05 02:53:17;;;;;;;1.20;1.10;;;23.10;99.00;;;;;;5077633;28;20448;-82
2022/08/05 02:55:45;;;;;;;5.80;1.00;;;23.10;99.30;;;;;;5077207;28;20440;-82
2022/08/05 02:58:14;;;;;;;5.30;1.83;;;23.10;99.50;;;;;;5077393;28;20230;-82
2022/08/05 03:00:42;;;;;;;10.63;1.60;;;23.10;99.90;;;;;;5077118;28;20452;-82
2022/08/05 03:03:09;;;;;;;1.20;1.10;;;23.10;99.50;;;;;;5076942;28;20455;-82
2022/08/05 03:05:38;;;;;;;2.23;1.63;;;23.10;99.90;;;;;;5077220;28;20218;-82
2022/08/05 03:08:05;;;;;;;1.07;1.00;;;23.10;99.80;;;;;;5077568;28;20229;-82
2022/08/05 03:10:32;;;;;;;1.20;1.13;;;23.00;99.90;;;;;;5077421;28;20222;-82
2022/08/05 03:12:59;;;;;;;1.37;1.27;;;23.00;99.90;;;;;;5076880;28;20444;-82
2022/08/05 03:15:26;;;;;;;1.27;1.17;;;23.00;99.90;;;;;;5077614;28;20205;-82
2022/08/05 03:17:53;;;;;;;0.97;0.97;;;23.00;99.90;;;;;;5077282;28;20456;-82
2022/08/05 03:20:20;;;;;;;1.47;1.03;;;22.90;99.90;;;;;;5076991;28;20461;-82
2022/08/05 03:22:48;;;;;;;1.57;1.10;;;22.90;99.90;;;;;;5076745;28;20944;-82
2022/08/05 03:25:16;;;;;;;1.53;1.13;;;22.90;99.90;;;;;;5077092;28;20484;-82
2022/08/05 03:27:43;;;;;;;1.20;1.10;;;22.80;99.90;;;;;;5077885;28;20194;-82
2022/08/05 03:30:10;;;;;;;1.00;1.00;;;22.80;99.90;;;;;;5076988;28;20476;-82
2022/08/05 03:32:39;;;;;;;1.40;1.27;;;22.80;99.90;;;;;;5076478;28;20677;-82
2022/08/05 03:35:07;;;;;;;4.77;1.60;;;22.70;99.90;;;;;;5076831;28;20452;-82
2022/08/05 03:37:35;;;;;;;1.07;0.97;;;22.70;99.90;;;;;;5076771;28;20444;-82
2022/08/05 03:40:07;;;;;;;1.00;0.97;;;22.70;99.90;;;;;;5076934;28;20472;-82
2022/08/05 03:42:34;;;;;;;2.20;1.20;;;22.70;99.90;;;;;;5076363;28;20515;-83
2022/08/05 03:45:01;;;;;;;1.53;1.30;;;22.60;99.90;;;;;;5075350;28;20480;-83
2022/08/05 03:47:27;;;;;;;1.63;1.03;;;22.60;99.90;;;;;;5076470;28;20448;-82
2022/08/05 03:49:54;;;;;;;0.77;0.70;;;22.50;99.90;;;;;;5076867;28;20465;-82
2022/08/05 03:52:29;;;;;;;1.10;1.00;;;22.50;99.90;;;;;;5076486;28;20449;-82
2022/08/05 03:55:00;;;;;;;2.10;1.13;;;22.50;99.90;;;;;;5076997;28;20428;-82
2022/08/05 03:57:32;;;;;;;1.03;0.97;;;22.40;99.90;;;;;;5076831;28;20467;-82
2022/08/05 04:00:03;;;;;;;1.10;0.90;;;22.40;99.90;;;;;;5076065;28;20517;-82
2022/08/05 04:02:32;;;;;;;0.97;0.97;;;22.30;99.90;;;;;;5075822;28;20428;-82
2022/08/05 04:05:01;;;;;;;1.67;1.37;;;22.30;99.90;;;;;;5074637;28;21011;-82
2022/08/05 04:07:28;;;;;;;1.00;1.00;;;22.30;99.90;;;;;;5074945;28;20455;-82
2022/08/05 04:09:55;;;;;;;1.47;1.37;;;22.30;99.90;;;;;;5074851;28;20472;-82
2022/08/05 04:12:23;;;;;;;1.20;0.97;;;22.30;99.90;;;;;;5074887;28;20451;-82
2022/08/05 04:14:51;;;;;;;1.13;1.13;;;22.30;99.90;;;;;;5074825;28;20453;-83
2022/08/05 04:17:18;;;;;;;1.13;1.10;;;22.30;99.90;;;;;;5074791;28;20448;-82
2022/08/05 04:19:46;;;;;;;1.07;0.80;;;22.30;99.90;;;;;;5074365;28;20478;-82
2022/08/05 04:22:13;;;;;;;1.03;0.90;;;22.30;99.90;;;;;;5074458;28;20436;-82
2022/08/05 04:24:40;;;;;;;1.23;1.10;;;22.20;99.90;;;;;;5074553;28;20448;-82
2022/08/05 04:27:07;;;;;;;1.40;1.30;;;22.20;99.90;;;;;;5074622;28;20445;-79
2022/08/05 04:29:34;;;;;;;1.23;1.13;;;22.20;99.90;;;;;;5074453;28;20444;-79
2022/08/05 04:32:02;;;;;;;1.10;1.10;;;22.20;99.90;;;;;;5074208;28;20947;-79
2022/08/05 04:34:28;;;;;;;1.20;1.00;;;22.20;99.90;;;;;;5074103;28;20962;-79
2022/08/05 04:36:55;;;;;;;1.47;1.30;;;22.20;99.90;;;;;;5074091;28;20448;-79
2022/08/05 04:39:22;;;;;;;0.70;0.70;;;22.20;99.90;;;;;;5074282;28;20445;-79
2022/08/05 04:41:49;;;;;;;1.73;1.00;;;22.20;99.90;;;;;;5074109;28;20480;-79
2022/08/05 04:44:16;;;;;;;2.70;1.10;;;22.20;99.90;;;;;;5074217;28;20796;-79
2022/08/05 04:46:43;;;;;;;1.20;1.10;;;22.20;99.90;;;;;;5073569;28;20476;-79
2022/08/05 04:49:11;;;;;;;0.90;0.90;;;22.20;99.90;;;;;;5073864;28;20456;-79
2022/08/05 04:51:38;;;;;;;1.27;1.00;;;22.20;99.90;;;;;;5073810;28;20459;-79
2022/08/05 04:54:05;;;;;;;2.23;1.63;;;22.20;99.90;;;;;;5074100;28;20452;-79
2022/08/05 04:56:31;;;;;;;1.23;1.23;;;22.20;99.90;;;;;;5074050;28;20440;-79
2022/08/05 04:58:58;;;;;;;1.70;1.40;;;22.20;99.90;;;;;;5073718;28;20440;-79
2022/08/05 05:01:25;;;;;;;1.40;1.30;;;22.10;99.90;;;;;;5073901;28;20468;-79
2022/08/05 05:03:51;;;;;;;1.20;1.03;;;22.10;99.90;;;;;;5073934;28;20448;-79
2022/08/05 05:06:19;;;;;;;0.87;0.87;;;22.10;99.90;;;;;;5073579;28;20999;-79
2022/08/05 05:08:46;;;;;;;1.13;1.03;;;22.10;99.90;;;;;;5073562;28;20503;-79
2022/08/05 05:11:13;;;;;;;1.70;1.20;;;22.20;99.90;;;;;;5073759;28;20485;-79
2022/08/05 05:13:40;;;;;;;1.40;1.30;;;22.20;99.90;;;;;;5073545;28;20793;-79
2022/08/05 05:16:07;;;;;;;1.80;1.37;;;22.30;99.90;;;;;;5073499;28;20440;-79
2022/08/05 05:18:34;;;;;;;1.33;1.23;;;22.40;99.90;;;;;;5073358;28;20819;-79
2022/08/05 05:21:01;;;;;;;2.00;1.60;;;22.60;99.90;;;;;;5073802;28;20468;-79
2022/08/05 05:23:29;;;;;;;1.60;1.37;;;22.70;99.90;;;;;;5073855;28;20463;-79
2022/08/05 05:25:55;;;;;;;2.10;1.83;;;22.80;99.90;;;;;;5073530;28;20472;-79
2022/08/05 05:28:22;;;;;;;3.37;1.40;;;22.90;99.90;;;;;;5073574;28;20558;-79
2022/08/05 05:30:49;;;;;;;1.37;1.10;;;23.00;99.90;;;;;;5073457;28;20610;-79
2022/08/05 05:33:16;;;;;;;1.50;1.40;;;23.00;99.90;;;;;;5073292;28;20197;-79
2022/08/05 05:35:44;;;;;;;1.93;1.43;;;23.00;99.90;;;;;;5073403;28;20939;-79
2022/08/05 05:38:10;;;;;;;1.30;1.20;;;23.00;99.90;;;;;;5073688;28;20460;-79
2022/08/05 05:40:39;;;;;;;1.70;1.60;;;23.10;99.90;;;;;;5072943;28;20448;-80
2022/08/05 05:43:05;;;;;;;1.20;1.10;;;23.10;99.90;;;;;;5073469;28;20186;-79
2022/08/05 05:45:32;;;;;;;1.50;1.40;;;23.10;99.90;;;;;;5073164;28;20998;-79
2022/08/05 05:47:59;;;;;;;1.43;1.33;;;23.10;99.90;;;;;;5073362;28;20444;-79
2022/08/05 05:50:26;;;;;;;2.10;1.77;;;23.20;99.90;;;;;;5073295;28;20229;-79
2022/08/05 05:52:54;;;;;;;1.40;1.30;;;23.20;99.90;;;;;;5073150;28;20676;-79
2022/08/05 05:55:20;;;;;;;2.03;1.80;;;23.30;99.90;;;;;;5073317;28;20255;-78
2022/08/05 05:57:48;;;;;;;2.40;1.97;;;23.40;99.90;;;;;;5076807;28;20208;-79
2022/08/05 06:00:17;;;;;;;1.63;1.53;;;23.50;99.90;;;;;;5077367;28;20221;-79
2022/08/05 06:02:46;;;;;;;2.90;2.03;;;23.70;99.90;;;;;;5077369;28;20452;-77
2022/08/05 06:05:15;;;;;;;1.93;1.83;;;23.90;99.90;;;;;;5077237;28;20209;-76
2022/08/05 06:07:43;;;;;;;2.63;2.20;;;24.10;99.90;;;;;;5077223;28;20206;-76
2022/08/05 06:10:11;;;;;;;2.40;2.25;;;24.20;99.90;;;;;;5077186;28;20225;-77
2022/08/05 06:12:39;;;;;;;3.77;2.10;;;24.30;99.90;;;;;;5077211;28;20205;-77
2022/08/05 06:15:08;;;;;;;2.85;1.95;;;24.40;99.90;;;;;;5077192;28;20198;-77
2022/08/05 06:17:35;;;;;;;1.65;1.55;;;24.50;99.90;;;;;;5077417;28;20202;-77
2022/08/05 06:20:02;;;;;;;1.73;1.63;;;24.50;99.90;;;;;;5076969;28;20222;-77
2022/08/05 06:22:30;;;;;;;1.90;1.80;;;24.40;99.90;;;;;;5076996;28;20202;-77
2022/08/05 06:24:58;;;;;;;2.25;2.08;;;24.30;99.90;;;;;;5076974;28;20206;-77
2022/08/05 06:27:24;;;;;;;1.77;1.67;;;24.30;99.90;;;;;;5076868;28;20585;-77
2022/08/05 06:29:51;;;;;;;1.50;1.40;;;24.40;99.90;;;;;;5076512;28;20721;-77
2022/08/05 06:32:19;;;;;;;2.05;1.95;;;24.50;99.90;;;;;;5076835;28;20202;-77
2022/08/05 06:34:46;;;;;;;1.92;1.83;;;24.70;99.90;;;;;;5076500;28;20202;-77
2022/08/05 06:37:13;;;;;;;3.22;1.80;;;24.90;99.90;;;;;;5076569;28;20202;-77
2022/08/05 06:39:40;;;;;;;1.85;1.75;;;25.00;99.90;;;;;;5076575;28;20228;-75
2022/08/05 06:42:07;;;;;;;1.80;1.70;;;25.30;99.90;;;;;;5076460;28;20233;-77
2022/08/05 06:44:33;;;;;;;2.28;1.90;;;25.50;99.90;;;;;;5076442;28;20576;-77
2022/08/05 06:47:00;;;;;;;2.15;2.00;;;25.70;99.90;;;;;;5076457;28;20218;-77
2022/08/05 06:49:28;;;;;;;1.80;1.65;;;25.90;99.90;;;;;;5076199;28;20194;-76
2022/08/05 06:51:55;;;;;;;1.55;1.45;;;26.10;99.90;;;;;;5076436;28;20213;-76
2022/08/05 06:54:22;;;;;;;1.38;1.27;;;26.10;99.90;;;;;;5076379;28;20205;-76
2022/08/05 06:56:49;;;;;;;4.30;1.40;;;26.20;99.90;;;;;;5076375;28;20225;-76
2022/08/05 06:59:16;;;;;;;1.80;1.70;;;26.30;99.90;;;;;;5076081;28;20700;-77
2022/08/05 07:01:42;;;;;;;1.98;1.88;;;26.30;99.90;;;;;;5075863;28;20315;-77
2022/08/05 07:04:09;;;;;;;1.83;1.48;;;26.50;99.90;;;;;;5076217;28;20224;-77
2022/08/05 07:06:37;;;;;;;2.72;1.10;;;26.70;99.90;;;;;;5075747;28;20554;-76
2022/08/05 07:09:04;;;;;;;0.93;0.90;;;26.80;98.90;;;;;;5074714;28;20681;-77
2022/08/05 07:11:32;;;;;;;0.80;0.80;;;26.90;98.50;;;;;;5075711;28;20222;-77
2022/08/05 07:16:49;;;;;;;0.90;0.70;;;27.20;97.60;;;;;;5075815;28;20684;-76
2022/08/05 07:19:16;;;;;;;0.77;0.77;;;27.40;95.90;;;;;;5075978;28;20209;-77
2022/08/05 07:21:44;;;;;;;0.88;0.80;;;27.30;95.20;;;;;;5075903;28;20255;-75
2022/08/05 07:24:12;;;;;;;1.38;0.60;;;27.40;95.40;;;;;;5076610;28;20205;-75
2022/08/05 07:26:39;;;;;;;0.70;0.70;;;27.50;95.30;;;;;;5075727;28;20225;-76
2022/08/05 07:29:07;;;;;;;0.70;0.60;;;27.80;94.80;;;;;;5075465;28;20684;-76
2022/08/05 07:31:34;;;;;;;0.70;0.70;;;27.90;93.70;;;;;;5075515;28;20222;-75
2022/08/05 07:34:01;;;;;;;0.77;0.60;;;28.10;93.00;;;;;;5075649;28;20206;-76
2022/08/05 07:36:28;;;;;;;0.70;0.70;;;28.10;91.30;;;;;;5075628;28;20236;-76
2022/08/05 07:38:56;;;;;;;0.70;0.70;;;28.20;92.10;;;;;;5075616;28;20202;-79
2022/08/05 07:41:24;;;;;;;0.98;0.90;;;28.30;92.10;;;;;;5075213;28;20237;-85
2022/08/05 07:43:52;;;;;;;1.02;0.93;;;28.30;91.70;;;;;;5075391;28;20217;-77
2022/08/05 07:46:19;;;;;;;0.93;0.93;;;28.50;91.30;;;;;;5075413;28;20222;-77
2022/08/05 07:48:45;;;;;;;0.55;0.55;;;28.60;90.00;;;;;;5075390;28;20665;-77
2022/08/05 07:51:14;;;;;;;0.50;0.50;;;28.60;90.30;;;;;;5075266;28;20221;-77
2022/08/05 07:53:41;;;;;;;0.70;0.65;;;28.60;88.90;;;;;;5075290;28;20202;-77
2022/08/05 07:56:09;;;;;;;1.52;0.75;;;28.80;88.80;;;;;;5075293;28;20195;-77
2022/08/05 07:58:36;;;;;;;0.60;0.60;;;29.00;88.80;;;;;;5074926;28;20696;-77
2022/08/05 08:01:03;;;;;;;1.50;1.20;;;29.00;87.50;;;;;;5075127;28;20218;-77
2022/08/05 08:03:29;;;;;;;0.77;0.60;;;29.20;88.20;;;;;;5074887;28;20192;-78
2022/08/05 08:05:56;;;;;;;0.77;0.60;;;29.30;88.10;;;;;;5075238;28;20212;-77
2022/08/05 08:08:23;;;;;;;1.67;0.93;;;29.50;84.80;;;;;;5075000;28;20216;-78
2022/08/05 08:10:49;;;;;;;0.60;0.60;;;29.70;84.40;;;;;;5074674;28;20743;-77
2022/08/05 08:13:18;;;;;;;0.73;0.73;;;29.90;84.30;;;;;;5074666;28;20573;-78
2022/08/05 08:15:44;;;;;;;0.70;0.60;;;30.00;85.10;;;;;;5074568;28;20206;-78
2022/08/05 08:18:11;;;;;;;0.63;0.63;;;30.00;84.00;;;;;;5074460;28;20587;-77
2022/08/05 08:20:38;;;;;;;0.70;0.70;;;30.30;83.30;;;;;;5074295;28;20572;-78
2022/08/05 08:23:06;;;;;;;0.60;0.60;;;30.40;83.40;;;;;;5074437;28;20681;-78
2022/08/05 08:25:33;;;;;;;0.52;0.52;;;30.50;82.40;;;;;;5074943;28;20203;-78
2022/08/05 08:28:00;;;;;;;0.75;0.75;;;30.50;82.00;;;;;;5074536;28;20320;-78
2022/08/05 08:30:28;;;;;;;0.60;0.60;;;30.50;81.50;;;;;;5074507;28;20313;-78
2022/08/05 08:32:55;;;;;;;0.57;0.57;;;30.50;81.40;;;;;;5074540;28;20208;-77
2022/08/05 08:35:22;;;;;;;0.85;0.60;;;30.50;81.20;;;;;;5074335;28;20570;-78
2022/08/05 08:37:48;;;;;;;0.60;0.50;;;30.40;81.40;;;;;;5074559;28;20201;-77
2022/08/05 08:40:15;;;;;;;0.70;0.70;;;30.40;81.60;;;;;;5074342;28;20230;-78
2022/08/05 08:42:46;;;;;;;0.50;0.50;;;30.50;81.10;;;;;;5073821;28;20241;-77
2022/08/05 08:45:14;;;;;;;0.65;0.60;;;30.40;80.00;;;;;;5074336;28;20195;-78
2022/08/05 08:47:46;;;;;;;0.60;0.60;;;30.10;79.40;;;;;;5074095;28;20218;-77
2022/08/05 08:50:13;;;;;;;0.95;0.90;;;30.10;80.30;;;;;;5073806;28;20710;-77
2022/08/05 08:52:41;;;;;;;2.85;0.70;;;30.00;79.90;;;;;;5074207;28;20202;-78
2022/08/05 08:55:08;;;;;;;0.50;0.50;;;29.90;78.40;;;;;;5073875;28;20225;-78
2022/08/05 08:57:35;;;;;;;0.60;0.60;;;29.90;79.90;;;;;;5074309;28;20293;-77
2022/08/05 09:00:04;;;;;;;0.65;0.65;;;29.90;80.40;;;;;;5073913;28;20222;-77
2022/08/05 09:02:32;;;;;;;1.02;0.70;;;30.10;77.20;;;;;;5073967;28;20206;-78
2022/08/05 09:05:00;;;;;;;0.80;0.80;;;30.10;77.50;;;;;;5073915;28;20210;-77
2022/08/05 09:07:27;;;;;;;0.52;0.50;;;29.90;76.60;;;;;;5073832;28;20585;-77
2022/08/05 09:09:53;;;;;;;1.02;0.93;;;29.90;76.20;;;;;;5073821;28;20596;-77
2022/08/05 09:12:20;;;;;;;0.43;0.43;;;29.80;78.10;;;;;;5073526;28;20673;-77
2022/08/05 09:14:48;;;;;;;0.65;0.65;;;29.90;78.20;;;;;;5073473;28;20673;-77
2022/08/05 09:17:15;;;;;;;0.50;0.50;;;30.10;78.00;;;;;;5073715;28;20216;-77
2022/08/05 09:19:42;;;;;;;0.70;0.70;;;30.20;76.70;;;;;;5073614;28;20236;-78
2022/08/05 09:22:10;;;;;;;0.85;0.68;;;30.40;77.50;;;;;;5073346;28;20590;-77
2022/08/05 09:24:37;;;;;;;0.98;0.80;;;30.60;76.00;;;;;;5073530;28;20213;-77
2022/08/05 09:27:08;;;;;;;0.70;0.70;;;30.90;72.70;;;;;;5073757;28;20218;-77
2022/08/05 09:29:41;;;;;;;0.60;0.50;;;31.00;72.80;;;;;;5073528;28;20186;-77
2022/08/05 09:32:09;;;;;;;0.50;0.50;;;31.00;73.30;;;;;;5072961;28;20204;-77
2022/08/05 09:34:50;;;;;;;0.70;0.60;;;30.90;72.90;;;;;;5073239;28;20639;-77
2022/08/05 09:37:20;;;;;;;0.57;0.57;;;30.90;72.80;;;;;;5073456;28;20205;-77
2022/08/05 09:39:47;;;;;;;0.50;0.50;;;30.80;72.00;;;;;;5073669;28;20244;-77
2022/08/05 09:42:17;;;;;;;0.52;0.52;;;30.70;72.20;;;;;;5073180;28;20725;-78
2022/08/05 09:44:47;;;;;;;1.73;0.90;;;30.60;72.10;;;;;;5073201;28;20189;-77
2022/08/05 09:47:16;;;;;;;0.60;0.60;;;30.60;72.50;;;;;;5073439;28;20587;-77
2022/08/05 09:49:45;;;;;;;0.60;0.60;;;30.60;72.00;;;;;;5073171;28;20740;-77
2022/08/05 09:52:22;;;;;;;0.73;0.73;;;30.70;72.10;;;;;;5073347;28;20229;-77
2022/08/05 09:54:57;;;;;;;0.60;0.60;;;30.70;72.90;;;;;;5073361;28;20191;-77
2022/08/05 09:57:32;;;;;;;0.40;0.40;;;30.70;73.00;;;;;;5072986;28;20231;-77
2022/08/05 10:00:00;;;;;;;0.45;0.45;;;30.80;69.60;;;;;;5073178;28;20221;-77
2022/08/05 10:02:34;;;;;;;0.80;0.80;;;31.00;70.60;;;;;;5072958;28;20673;-77
2022/08/05 10:05:10;;;;;;;0.70;0.70;;;31.10;69.50;;;;;;5073213;28;20208;-77
2022/08/05 10:07:45;;;;;;;0.70;0.70;;;31.40;68.60;;;;;;5072836;28;20700;-77
2022/08/05 10:10:15;;;;;;;0.98;0.60;;;31.30;68.10;;;;;;5073949;28;20584;-77
2022/08/05 10:12:47;;;;;;;0.80;0.80;;;31.40;68.40;;;;;;5072891;28;20195;-77
2022/08/05 10:15:23;;;;;;;0.68;0.50;;;31.50;67.90;;;;;;5073144;28;20191;-77
2022/08/05 10:18:06;;;;;;;0.55;0.55;;;31.60;69.10;;;;;;5073178;28;20183;-77
2022/08/05 10:20:35;;;;;;;0.68;0.65;;;31.70;68.50;;;;;;5073056;28;20216;-77
2022/08/05 10:23:03;;;;;;;0.60;0.60;;;31.80;67.80;;;;;;5072748;28;20211;-77
2022/08/05 10:25:30;;;;;;;0.80;0.75;;;31.60;66.00;;;;;;5073309;28;20199;-77
2022/08/05 10:27:58;;;;;;;0.60;0.60;;;31.50;65.20;;;;;;5072637;28;20215;-77
2022/08/05 10:30:25;;;;;;;0.70;0.70;;;31.40;66.50;;;;;;5072648;28;20278;-77
2022/08/05 10:32:53;;;;;;;1.20;0.65;;;31.30;65.30;;;;;;5072941;28;20195;-77
2022/08/05 10:35:20;;;;;;;0.60;0.60;;;31.40;66.80;;;;;;5072931;28;20210;-77
2022/08/05 10:37:47;;;;;;;0.75;0.70;;;31.40;67.40;;;;;;5072910;28;20207;-77
2022/08/05 10:40:27;;;;;;;0.55;0.55;;;31.60;67.20;;;;;;5072806;28;20227;-77
2022/08/05 10:42:58;;;;;;;0.68;0.68;;;31.80;67.60;;;;;;5074406;28;20189;-77
2022/08/05 10:45:26;;;;;;;0.50;0.50;;;31.90;65.20;;;;;;5076593;28;20202;-77
2022/08/05 10:47:54;;;;;;;1.00;1.00;;;32.10;65.00;;;;;;5076196;28;20699;-77
2022/08/05 10:50:20;;;;;;;1.63;0.90;;;32.20;63.90;;;;;;5076355;28;20778;-77
2022/08/05 10:52:55;;;;;;;0.68;0.60;;;32.00;64.60;;;;;;5076450;28;20207;-77
2022/08/05 10:55:24;;;;;;;1.80;0.52;;;32.00;64.50;;;;;;5076158;28;20648;-77
2022/08/05 10:58:07;;;;;;;0.77;0.65;;;32.20;63.70;;;;;;5076353;28;20214;-77
2022/08/05 11:00:34;;;;;;;0.60;0.60;;;32.20;61.70;;;;;;5076576;28;20679;-77
2022/08/05 11:03:13;;;;;;;0.63;0.60;;;32.40;62.20;;;;;;5075927;28;20678;-76
2022/08/05 11:05:40;;;;;;;1.13;0.68;;;32.60;61.80;;;;;;5076223;28;20216;-76
2022/08/05 11:08:09;;;;;;;0.50;0.50;;;33.00;60.80;;;;;;5075837;28;20229;-77
2022/08/05 11:10:41;;;;;;;0.95;0.80;;;33.30;61.80;;;;;;5075995;28;20225;-77
2022/08/05 11:13:09;;;;;;;0.60;0.60;;;33.80;59.70;;;;;;5076660;28;20287;-77
2022/08/05 11:15:39;;;;;;;0.60;0.60;;;33.90;60.60;;;;;;5076040;28;20205;-77
2022/08/05 11:18:07;;;;;;;0.55;0.55;;;33.90;59.40;;;;;;5076020;28;20281;-77
2022/08/05 11:20:53;;;;;;;0.60;0.60;;;33.60;59.30;;;;;;5075581;28;20711;-77
2022/08/05 11:23:37;;;;;;;0.65;0.65;;;33.00;61.10;;;;;;5075864;28;20183;-77
2022/08/05 11:26:09;;;;;;;0.60;0.60;;;32.70;61.00;;;;;;5076284;28;20209;-77
2022/08/05 11:28:45;;;;;;;0.70;0.70;;;32.70;60.50;;;;;;5075473;28;20694;-78
2022/08/05 11:31:32;;;;;;;0.60;0.60;;;32.50;61.00;;;;;;5075969;28;20228;-78
2022/08/05 11:34:01;;;;;;;0.68;0.68;;;32.40;62.90;;;;;;5076182;28;20203;-78
2022/08/05 11:36:49;;;;;;;0.60;0.60;;;31.90;63.20;;;;;;5075417;28;20574;-78
2022/08/05 11:39:37;;;;;;;0.70;0.70;;;31.90;62.20;;;;;;5075879;28;20643;-78
2022/08/05 11:42:07;;;;;;;0.90;0.80;;;31.90;62.10;;;;;;5074976;28;20243;-78
2022/08/05 11:44:38;;;;;;;0.77;0.77;;;31.90;62.90;;;;;;5075358;28;20206;-78
2022/08/05 11:47:05;;;;;;;0.80;0.80;;;31.90;62.00;;;;;;5075696;28;20224;-78
2022/08/05 11:49:32;;;;;;;1.00;0.70;;;31.90;63.80;;;;;;5075934;28;20290;-78
2022/08/05 11:51:59;;;;;;;0.50;0.50;;;31.80;63.90;;;;;;5076097;28;20667;-78
2022/08/05 11:54:28;;;;;;;0.80;0.80;;;31.90;63.60;;;;;;5075858;28;20202;-79
2022/08/05 11:56:57;;;;;;;0.63;0.63;;;32.00;64.30;;;;;;5076291;28;20195;-78
2022/08/05 11:59:27;;;;;;;0.60;0.60;;;31.90;65.90;;;;;;5075753;28;20372;-78
2022/08/05 12:01:56;;;;;;;0.70;0.70;;;31.90;64.30;;;;;;5075363;28;20202;-78
2022/08/05 12:04:23;;;;;;;0.73;0.73;;;31.90;62.80;;;;;;5075074;28;20281;-77
2022/08/05 12:06:51;;;;;;;0.70;0.70;;;31.80;61.90;;;;;;5075242;28;20198;-77
2022/08/05 12:09:21;;;;;;;0.60;0.60;;;31.70;62.00;;;;;;5074924;28;20222;-77
2022/08/05 12:11:48;;;;;;;1.33;0.80;;;31.50;64.70;;;;;;5075835;28;20274;-77
2022/08/05 12:14:15;;;;;;;1.10;0.80;;;31.50;64.20;;;;;;5074944;28;20206;-77
2022/08/05 12:16:46;;;;;;;0.70;0.70;;;31.50;63.90;;;;;;5075158;28;20206;-77
2022/08/05 12:19:13;;;;;;;0.70;0.70;;;31.50;62.30;;;;;;5074821;28;20179;-77
2022/08/05 12:21:45;;;;;;;0.60;0.60;;;31.50;63.80;;;;;;5074727;28;20233;-77
2022/08/05 12:24:14;;;;;;;0.65;0.65;;;31.30;64.90;;;;;;5075076;28;20196;-77
2022/08/05 12:26:44;;;;;;;0.95;0.90;;;31.10;65.00;;;;;;5074432;28;20209;-77
2022/08/05 12:29:12;;;;;;;0.68;0.68;;;31.10;66.10;;;;;;5074587;28;20214;-77
2022/08/05 12:31:41;;;;;;;1.17;1.08;;;31.10;66.70;;;;;;5074554;28;20222;-77
2022/08/05 12:34:09;;;;;;;0.90;0.60;;;31.10;65.90;;;;;;5074585;28;20204;-77
2022/08/05 12:36:37;;;;;;;0.70;0.70;;;31.10;66.10;;;;;;5074503;28;20205;-77
2022/08/05 12:39:05;;;;;;;0.60;0.60;;;31.20;67.30;;;;;;5074465;28;20209;-77
2022/08/05 12:41:34;;;;;;;1.02;0.75;;;31.10;66.50;;;;;;5074130;28;20239;-77
2022/08/05 12:44:03;;;;;;;0.60;0.60;;;31.00;66.60;;;;;;5074593;28;20213;-76
2022/08/05 12:46:32;;;;;;;0.60;0.60;;;30.80;66.00;;;;;;5074293;28;20208;-77
2022/08/05 12:49:01;;;;;;;0.88;0.73;;;30.70;66.40;;;;;;5074133;28;20229;-77
2022/08/05 12:51:31;;;;;;;1.08;0.82;;;30.60;66.70;;;;;;5073811;28;20218;-77
2022/08/05 12:54:00;;;;;;;1.05;0.80;;;30.50;67.20;;;;;;5074404;28;20212;-77
2022/08/05 12:56:28;;;;;;;0.98;0.90;;;30.30;67.80;;;;;;5074067;28;20215;-77
2022/08/05 12:59:14;;;;;;;0.63;0.60;;;30.30;67.00;;;;;;5074027;28;20320;-77